Main page
METAR-TAF:

METAR-TAF

Airports :

Islamabad International Airport

Islamabad, Pakistan

latitude: 33-32-57N, longitude: 072-49-32E, elevation: 537 m

Current weather observation

The report was made 34 minutes ago, at 19:30 UTC
Wind 4 kt from the Southwest
Temperature 13°C
Humidity 72%
Pressure 1017 hPa
Visibility: 7000 m

METAR: OPIS 281930Z 23004KT 7000 NSC 13/08 Q1017 NOSIG

Time: 01:04 (20:04 UTC)

Forecast

The report was made 10 hours and 19 minutes ago, at 09:45 UTC
Forecast valid from 28 at 12 UTC to 29 at 18 UTC
Wind 10 kt from the West
Visibility: 6000 m
Temporary
from 28 at 23 UTC to 29 at 03 UTC
Wind 10 kt from the East
Visibility: 4000 m
smoke

TAF: OPIS 280945Z 2812/2918 27010KT 6000 NSC TEMPO 2823/2903 09010KT 4000 FU

Weather observations and forecasts of more than 4000 airports (METAR and TAF reports).

The available stations are represented by yellow and red dots on the map.

Hover mouse over dot to see the name of the station.

Then click to see weather observations and forecasts.

To change the map : click on the green buttons with a black cross to zoom in, on the green button with a dash to zoom out, or on the green arrows for adjacent maps.


METAR-TAF: